»·PEaware :: SWA1 KSAN-KLAS

SWA1 :: KSAN-KLAS

FLIGHT INFORMATION

Flight Status: Arrived
Operator:
Southwest Airlines
More flights by this operator :: More flights under this callsign
Pilot: Jordan D. (16847)
Aircraft: BOEING 737-800
(B738)
More flights by this aircraft type
Origin: KSAN San Diego Intl-Lindbergh
United States
Destination: KLAS McCarran Intl
United States
More flights between these airports :: More routes between these airports
Route: +PADRZ1 CHKNN SEBBY YELAH MISEN KEPEC5
File this flight plan on PilotEdge
Remarks:
Altitude:
(Current/Filed)
29,000ft
Speed:
(Current/Filed)
450kts
Departed: 08-Oct-17 03:50 PM
Arrived: 08-Oct-17 04:41 PM
Distance/Time
Traveled:
225nm/0:50
Distance/Time
To Go:
Arrived

Flight Plot

Page will automatically refresh every two minutes.

Flight plan parsing failed; only flown route is shown


Map Options




Map Legend


Flown Route
Filed Route
Departure Airport
Arrival Airport
Navaid (VOR, NDB)
Fix

Horizontal Profiles

Position Reports

Time Latitude Longitude Heading Altitude Ground
Speed
08-Oct-17 15:35 32.732374 -117.195987 309 22ft 0kts
08-Oct-17 15:36 32.732374 -117.195987 309 22ft 0kts
08-Oct-17 15:37 32.732374 -117.195987 309 22ft 0kts
08-Oct-17 15:38 32.732374 -117.195987 309 22ft 0kts
08-Oct-17 15:39 32.732374 -117.195987 309 22ft 0kts
08-Oct-17 15:40 32.732374 -117.195987 309 22ft 0kts
08-Oct-17 15:41 32.732374 -117.195987 309 22ft 0kts
08-Oct-17 15:42 32.732374 -117.195987 309 22ft 0kts
08-Oct-17 15:43 32.732374 -117.195987 309 22ft 0kts
08-Oct-17 15:44 32.732374 -117.195987 309 22ft 0kts
08-Oct-17 15:45 32.732374 -117.195987 309 22ft 0kts
08-Oct-17 15:46 32.732059 -117.195673 344 22ft 2kts
08-Oct-17 15:47 32.731746 -117.195781 42 22ft 0kts
08-Oct-17 15:48 32.731747 -117.195779 42 22ft 0kts
08-Oct-17 15:49 32.731846 -117.195672 42 22ft 8kts
08-Oct-17 15:50 32.733222 -117.192168 105 23ft 25kts
08-Oct-17 15:51 32.731227 -117.183604 105 23ft 19kts
08-Oct-17 15:52 32.729969 -117.175629 51 22ft 8kts
08-Oct-17 15:53 32.730621 -117.177632 283 22ft 19kts
08-Oct-17 15:54 32.737119 -117.204167 283 339ft 177kts
08-Oct-17 15:55 32.760195 -117.255362 304 3171ft 211kts
08-Oct-17 15:56 32.800428 -117.319678 306 5259ft 270kts
08-Oct-17 15:57 32.847506 -117.392468 306 9190ft 283kts
08-Oct-17 15:58 32.897547 -117.470263 306 11930ft 326kts
08-Oct-17 15:59 32.956030 -117.561187 306 14626ft 354kts
08-Oct-17 16:00 33.016868 -117.656222 307 17486ft 368kts
08-Oct-17 16:01 33.083946 -117.750420 317 20136ft 381kts
08-Oct-17 16:02 33.166401 -117.833925 318 22503ft 394kts
08-Oct-17 16:03 33.260330 -117.898699 353 22821ft 407kts
08-Oct-17 16:04 33.366329 -117.843465 30 24380ft 427kts
08-Oct-17 16:05 33.452864 -117.773341 29 26749ft 353kts
08-Oct-17 16:06 33.540732 -117.701876 29 26808ft 413kts
08-Oct-17 16:07 33.565515 -117.681678 30 26805ft 426kts
08-Oct-17 16:08 33.668469 -117.597948 30 26789ft 465kts
08-Oct-17 16:09 33.778255 -117.508384 30 26769ft 481kts
08-Oct-17 16:10 33.888511 -117.418055 30 26765ft 480kts
08-Oct-17 16:11 33.998680 -117.327479 30 26768ft 480kts
08-Oct-17 16:12 34.109261 -117.236264 30 26770ft 480kts
08-Oct-17 16:13 34.219316 -117.145190 30 26792ft 479kts
08-Oct-17 16:14 34.329280 -117.053894 30 26871ft 480kts
08-Oct-17 16:15 34.439505 -116.962085 29 26920ft 480kts
08-Oct-17 16:16 34.549492 -116.870178 29 26885ft 481kts
08-Oct-17 16:17 34.659888 -116.777621 29 26805ft 481kts
08-Oct-17 16:18 34.769930 -116.685061 29 26732ft 482kts
08-Oct-17 16:19 34.879195 -116.593060 29 26699ft 457kts
08-Oct-17 16:20 34.979404 -116.508240 29 26554ft 428kts
08-Oct-17 16:21 35.075158 -116.426861 28 24369ft 414kts
08-Oct-17 16:22 35.160930 -116.331193 40 22607ft 420kts
08-Oct-17 16:23 35.241069 -116.229910 39 21058ft 409kts
08-Oct-17 16:24 35.318984 -116.131562 39 19559ft 396kts
08-Oct-17 16:25 35.395088 -116.035851 39 18090ft 385kts
08-Oct-17 16:26 35.468834 -115.942923 40 16678ft 376kts
08-Oct-17 16:27 35.540753 -115.851868 41 15293ft 366kts
08-Oct-17 16:28 35.610549 -115.762926 41 14241ft 362kts
08-Oct-17 16:29 35.675248 -115.680356 42 13054ft 314kts
08-Oct-17 16:30 35.735862 -115.602929 41 12984ft 314kts
08-Oct-17 16:31 35.813864 -115.572083 358 12993ft 298kts
08-Oct-17 16:32 35.896995 -115.567669 358 12995ft 303kts
08-Oct-17 16:33 35.977186 -115.544610 40 12897ft 314kts
08-Oct-17 16:34 36.009206 -115.443162 65 11690ft 315kts
08-Oct-17 16:35 36.028943 -115.344497 90 10598ft 290kts
08-Oct-17 16:36 36.021983 -115.248494 93 8859ft 280kts
08-Oct-17 16:37 36.015327 -115.154661 93 7062ft 270kts
08-Oct-17 16:38 36.009502 -115.062984 87 5762ft 262kts
08-Oct-17 16:39 36.007611 -114.973505 92 5537ft 263kts
08-Oct-17 16:40 36.044816 -114.954614 305 5326ft 165kts
08-Oct-17 16:41 36.065261 -114.998371 299 3894ft 139kts
08-Oct-17 16:42 36.074358 -115.043637 270 3440ft 140kts
08-Oct-17 16:43 36.073915 -115.091505 270 2687ft 137kts
08-Oct-17 16:44 36.073655 -115.137474 267 2190ft 119kts
08-Oct-17 16:45 36.074431 -115.145324 298 2189ft 0kts
08-Oct-17 16:46 36.074434 -115.145329 298 2189ft 0kts
08-Oct-17 16:47 36.074436 -115.145335 298 2189ft 0kts
08-Oct-17 16:48 36.074439 -115.145340 298 2189ft 0kts
08-Oct-17 16:49 36.076875 -115.146528 359 2189ft 21kts
08-Oct-17 16:50 36.079334 -115.146870 34 2189ft 4kts
08-Oct-17 16:51 36.079533 -115.146737 23 2189ft 0kts
08-Oct-17 16:52 36.079533 -115.146737 23 2189ft 0kts
08-Oct-17 16:53 36.079533 -115.146737 23 2189ft 0kts
08-Oct-17 16:54 36.079533 -115.146737 23 2189ft 0kts
08-Oct-17 16:55 36.079533 -115.146737 23 2189ft 0kts
08-Oct-17 16:56 36.079533 -115.146737 23 2189ft 0kts
08-Oct-17 16:57 36.079533 -115.146737 23 2189ft 0kts
08-Oct-17 16:58 36.079533 -115.146737 23 2189ft 0kts

Navigation Log

Ident Type
Flight plan parsing failed, navigation log unavailable